• Join FlightAware (Why Join?)
  • Login
  • US Flag 
09:10PM EDT


 

Airport Tracker/Info


-or-


 

Live Flight TrackerFlight Track Log ✈ AWE3286 ✈ 21-Jun-2013 ✈ KCLT - KBDL

Flight Track Log - Related Links

Times and Time Zones

All times are in EDT time to prevent confusion due to time zone crossing. See the AWE3286 flight status page for this flight to view local times or setup timezone preferences in your user account.

Time Position Orientation Groundspeed Altitude Reporting Facility
EDT Latitude Longitude Course Direction KTS MPH feet Rate Location/Type
10:33AM 35.2369 -80.9417 72° East 156 180 1,600  Level Atlanta Center
10:33AM 35.2556 -80.9383 North 163 188 2,200 1,980 Climbing Atlanta Center
10:35AM 35.1000 -80.6380 90° East  Level FlightAware Approximate
10:35AM 35.2969 -80.8453 61° Northeast 227 261 5,900  Level Atlanta Center
10:36AM 35.1882 -80.5746 29° Northeast  Level FlightAware Approximate
10:36AM 35.2944 -80.7486 92° East 245 282 8,700  Level Atlanta Center
10:37AM 35.2784 -80.5107 30° Northeast  Level FlightAware Approximate
10:37AM 35.2917 -80.6494 92° East 270 311 11,100  Level Atlanta Center
10:38AM 35.3425 -80.4320 72° East  Level FlightAware Approximate
10:39AM 35.3397 -80.4453 74° East 346 398 14,400  Level Washington Center
10:40AM 35.3758 -80.3300 69° East 359 413 16,500 1,740 Climbing Washington Center
10:41AM 35.4117 -80.2125 69° East 366 421 18,000 1,560 Climbing Washington Center
10:42AM 35.4436 -80.0869 73° East 371 427 19,700 1,620 Climbing Washington Center
10:43AM 35.4817 -79.9589 70° East 383 441 21,300 1,500 Climbing Washington Center
10:44AM 35.5158 -79.8231 73° East 396 456 22,700 1,260 Climbing Washington Center
10:45AM 35.5497 -79.6869 73° East 401 461 23,900 1,320 Climbing Washington Center
10:46AM 35.5883 -79.5331 73° East 419 482 25,400 1,320 Climbing Washington Center
10:47AM 35.6236 -79.4097 71° East 424 488 26,600 1,140 Climbing Washington Center
10:48AM 35.6778 -79.2767 63° Northeast 424 488 27,700 1,020 Climbing Washington Center
10:49AM 35.7322 -79.1358 65° Northeast 436 502 28,700 1,140 Climbing Washington Center
10:50AM 35.7928 -78.9928 62° Northeast 436 502 30,100 1,080 Climbing Washington Center
10:51AM 35.8486 -78.8567 63° Northeast 436 502 30,900 2,460 Climbing Washington Center
10:52AM 35.9086 -78.7206 61° Northeast 441 507 35,000 780 Climbing Washington Center
10:53AM 35.9725 -78.5872 59° Northeast 441 507 32,600 -840 Descending Washington Center
10:54AM 36.0364 -78.4561 59° Northeast 446 513 33,400 780 Climbing Washington Center
10:55AM 36.0978 -78.3244 60° Northeast 446 513 34,200 780 Climbing Washington Center
10:56AM 36.1611 -78.1956 59° Northeast 446 513 35,000 360 Climbing Washington Center
10:57AM 36.2244 -78.0639 59° Northeast 441 507 35,000  Level Washington Center
10:58AM 36.2856 -77.9317 60° Northeast 436 502 35,000  Level Washington Center
10:59AM 36.3486 -77.8019 59° Northeast 436 502 35,000  Level Washington Center
11:00AM 36.4092 -77.6722 60° Northeast 436 502 35,000  Level Washington Center
11:01AM 36.4614 -77.5494 62° Northeast 441 507 35,000  Level Washington Center
11:02AM 36.5219 -77.4192 60° Northeast 441 507 35,000  Level Washington Center
11:03AM 36.5864 -77.2864 59° Northeast 441 507 35,000  Level Washington Center
11:04AM 36.6486 -77.1531 60° Northeast 441 507 35,000  Level Washington Center
11:05AM 36.7214 -77.0119 57° Northeast 441 507 35,000  Level Washington Center
11:06AM 36.8183 -76.9178 38° Northeast 441 507 35,000  Level Washington Center
11:07AM 36.9194 -76.8286 35° Northeast 436 502 35,000  Level Washington Center
11:08AM 37.0206 -76.7364 36° Northeast 436 502 35,000  Level Washington Center
11:09AM 37.1194 -76.6442 37° Northeast 441 507 35,000  Level Washington Center
11:10AM 37.2183 -76.5542 36° Northeast 436 502 35,000  Level Washington Center
11:11AM 37.3169 -76.4667 35° Northeast 436 502 35,000  Level Washington Center
11:12AM 37.4156 -76.3764 36° Northeast 436 502 35,000  Level Washington Center
11:13AM 37.5036 -76.2961 36° Northeast 436 502 35,000  Level Washington Center
11:14AM 37.6003 -76.2053 37° Northeast 431 496 35,000  Level Washington Center
11:15AM 37.7092 -76.1117 34° Northeast 431 496 35,000  Level Washington Center
11:16AM 37.7928 -76.0281 38° Northeast 431 496 35,000  Level Washington Center
11:17AM 37.8892 -75.9364 37° Northeast 426 490 35,000  Level Washington Center
11:18AM 37.9811 -75.8500 37° Northeast 421 484 35,000  Level Washington Center
11:19AM 38.0750 -75.7606 37° Northeast 421 484 35,000  Level Washington Center
11:20AM 38.1711 -75.6736 35° Northeast 421 484 35,000  Level Washington Center
11:21AM 38.2628 -75.5839 38° Northeast 415 478 35,000  Level Washington Center
11:22AM 38.3733 -75.4989 31° Northeast 415 478 35,000  Level Washington Center
11:23AM 38.4836 -75.4511 19° North 405 466 35,000  Level Washington Center
11:24AM 38.5836 -75.3844 28° Northeast 410 472 35,000  Level Washington Center
11:25AM 38.6772 -75.3044 34° Northeast 404 465 35,000  Level Washington Center
11:26AM 38.7708 -75.2161 36° Northeast 409 471 35,000  Level Washington Center
11:27AM 38.8622 -75.1278 37° Northeast 409 471 35,000 -300 Level Washington Center
11:28AM 38.9578 -75.0444 34° Northeast 409 471 34,400 -960 Descending Washington Center
11:29AM 39.0511 -74.9556 36° Northeast 409 471 33,100 -1,380 Descending Washington Center
11:30AM 39.1508 -74.8689 34° Northeast 409 471 31,700 -1,320 Descending Washington Center
11:31AM 39.2439 -74.7769 37° Northeast 415 478 30,500 -1,260 Descending Washington Center
11:32AM 39.3289 -74.7008 35° Northeast 420 483 29,200 -780 Descending Washington Center
11:33AM 39.4242 -74.6136 35° Northeast 415 478 29,000 -120 Descending Washington Center
11:34AM 39.5150 -74.5236 37° Northeast 415 478 29,000  Level Washington Center
11:36AM 39.7414 -74.3128 36° Northeast 418 481 29,000  Level New York Center
11:37AM 39.8358 -74.2258 35° Northeast 413 475 29,000  Level New York Center
11:38AM 39.9303 -74.1356 36° Northeast 413 475 29,000 -180 Level New York Center
11:39AM 40.0222 -74.0481 36° Northeast 413 475 28,700 -1,260 Descending New York Center
11:40AM 40.1144 -73.9572 37° Northeast 413 475 26,500 -1,920 Descending New York Center
11:41AM 40.2042 -73.8772 34° Northeast 413 475 25,000 -780 Descending New York Center
11:42AM 40.2958 -73.7917 35° Northeast 407 468 25,000  Level New York Center
11:44AM 40.4919 -73.5889 38° Northeast 396 456 25,000 -360 Level Boston Center
11:45AM 40.5822 -73.5031 36° Northeast 396 456 23,900 -1,620 Descending Boston Center
11:46AM 40.6728 -73.4169 36° Northeast 396 456 21,800 -2,100 Descending Boston Center
11:47AM 40.7589 -73.3361 35° Northeast 390 449 19,700 -1,320 Descending Boston Center
11:49AM 40.8450 -73.2439 39° Northeast 377 434 19,000 -900 Descending Boston Center
11:50AM 40.9247 -73.1542 40° Northeast 370 426 17,800 -1,200 Descending Boston Center
11:51AM 41.0003 -73.0617 43° Northeast 370 426 16,600 -900 Descending Boston Center
11:52AM 41.0758 -72.9742 41° Northeast 364 419 16,000 -900 Descending Boston Center
11:53AM 41.1492 -72.8894 41° Northeast 359 413 14,900 -1,500 Descending Boston Center
11:54AM 41.2203 -72.8017 43° Northeast 351 404 13,100 -1,920 Descending Boston Center
11:55AM 41.2956 -72.7383 32° Northeast 325 374 11,100 -1,380 Descending Boston Center
11:55AM 41.3456 -72.7331 North 314 361 11,000 -300 Descending Boston Center
11:56AM 41.4183 -72.7583 345° North 285 328 10,700 -660 Descending Boston Center
11:57AM 41.4497 -72.7419 21° North 271 312 10,100 -900 Descending Boston Center
11:57AM 41.4978 -72.7228 17° North 278 320 9,800 -1,380 Descending Boston Center
11:58AM 41.5478 -72.7008 18° North 276 318 8,500 -1,680 Descending Boston Center
11:59AM 41.6144 -72.6761 15° North 283 326 7,000 -1,740 Descending Boston Center
12:00PM 41.6936 -72.6431 17° North 278 320 5,100 -1,020 Descending Boston Center
12:01PM 41.7667 -72.6128 17° North 278 320 5,000 -60 Descending Boston Center
12:02PM 41.8397 -72.5822 17° North 278 320 5,000 -300 Level Boston Center
12:03PM 41.9086 -72.5517 18° North 266 306 4,400 -600 Descending Boston Center